createdAt,value
2022-10-21T00:00:47.461Z,1010.28
2022-10-21T00:01:47.454Z,1010.32
2022-10-21T00:02:47.440Z,1010.35
2022-10-21T00:03:47.426Z,1010.23
2022-10-21T00:04:47.414Z,1010.22
2022-10-21T00:05:47.410Z,1010.25
2022-10-21T00:06:47.394Z,1010.17
2022-10-21T00:07:47.383Z,1010.30
2022-10-21T00:08:47.407Z,1010.31
2022-10-21T00:09:47.389Z,1010.31
2022-10-21T00:10:47.347Z,1010.29
2022-10-21T00:11:47.346Z,1010.17
2022-10-21T00:12:47.323Z,1010.18
2022-10-21T00:13:47.314Z,1010.21
2022-10-21T00:14:47.302Z,1010.20
2022-10-21T00:15:47.291Z,1010.24
2022-10-21T00:16:47.289Z,1010.21
2022-10-21T00:17:47.268Z,1010.14
2022-10-21T00:18:47.256Z,1010.16
2022-10-21T00:19:47.281Z,1010.12
2022-10-21T00:20:47.241Z,1010.14
2022-10-21T00:21:47.223Z,1010.22
2022-10-21T00:22:47.213Z,1010.31
2022-10-21T00:23:47.201Z,1010.29
2022-10-21T00:24:47.190Z,1010.33
2022-10-21T00:25:47.207Z,1010.38
2022-10-21T00:26:47.168Z,1010.30
2022-10-21T00:27:47.156Z,1010.35
2022-10-21T00:28:47.149Z,1010.36
2022-10-21T00:29:47.137Z,1010.44
2022-10-21T00:30:47.121Z,1010.38
2022-10-21T00:31:47.113Z,1010.48
2022-10-21T00:32:47.109Z,1010.44
2022-10-21T00:33:47.089Z,1010.51
2022-10-21T00:34:47.088Z,1010.46
2022-10-21T00:35:47.068Z,1010.55
2022-10-21T00:36:47.056Z,1010.57
2022-10-21T00:37:47.050Z,1010.56
2022-10-21T00:38:47.045Z,1010.55
2022-10-21T00:39:47.022Z,1010.61
2022-10-21T00:40:47.015Z,1010.55
2022-10-21T00:41:47.022Z,1010.55
2022-10-21T00:42:47.231Z,1010.62
2022-10-21T00:43:46.977Z,1010.55
2022-10-21T00:44:46.971Z,1010.59
2022-10-21T00:45:46.958Z,1010.65
2022-10-21T00:46:46.948Z,1010.55
2022-10-21T00:48:46.923Z,1010.54
2022-10-21T00:49:46.912Z,1010.56
2022-10-21T00:50:46.903Z,1010.44
2022-10-21T00:51:46.886Z,1010.43
2022-10-21T00:52:46.878Z,1010.42
2022-10-21T00:53:46.868Z,1010.41
2022-10-21T00:54:46.852Z,1010.49
2022-10-21T00:55:46.848Z,1010.41
2022-10-21T00:56:46.859Z,1010.37
2022-10-21T00:57:46.845Z,1010.37
2022-10-21T00:58:46.811Z,1010.44
2022-10-21T00:59:46.797Z,1010.46
2022-10-21T01:00:46.863Z,1010.43
2022-10-21T01:01:46.773Z,1010.49
2022-10-21T01:02:46.766Z,1010.45
2022-10-21T01:03:46.759Z,1010.36
2022-10-21T01:04:46.742Z,1010.30
2022-10-21T01:05:46.791Z,1010.32
2022-10-21T01:06:46.718Z,1010.29
2022-10-21T01:07:47.058Z,1010.17
2022-10-21T01:08:46.783Z,1010.16
2022-10-21T01:09:46.685Z,1010.15
2022-10-21T01:10:46.675Z,1010.14
2022-10-21T01:11:46.666Z,1010.08
2022-10-21T01:12:46.653Z,1010.00
2022-10-21T01:13:46.663Z,1010.05
2022-10-21T01:14:46.629Z,1009.97
2022-10-21T01:15:46.618Z,1009.97
2022-10-21T01:16:48.223Z,1009.97
2022-10-21T01:17:47.123Z,1009.95
2022-10-21T01:18:46.586Z,1010.02
2022-10-21T01:19:46.572Z,1010.04
2022-10-21T01:20:46.563Z,1010.06
2022-10-21T01:21:46.551Z,1010.07
2022-10-21T01:22:46.544Z,1010.01
2022-10-21T01:23:46.531Z,1010.01
2022-10-21T01:24:46.516Z,1010.04
2022-10-21T01:25:46.511Z,1009.99
2022-10-21T01:26:46.494Z,1010.00
2022-10-21T01:27:46.494Z,1009.95
2022-10-21T01:28:46.475Z,1009.94
2022-10-21T01:29:46.485Z,1010.03
2022-10-21T01:30:46.454Z,1009.95
2022-10-21T01:31:46.437Z,1009.88
2022-10-21T01:32:46.433Z,1009.93
2022-10-21T01:33:46.417Z,1009.91
2022-10-21T01:34:46.404Z,1009.91
2022-10-21T01:35:46.395Z,1009.84
2022-10-21T01:36:46.385Z,1009.76
2022-10-21T01:37:46.431Z,1009.78
2022-10-21T01:38:46.358Z,1009.79
2022-10-21T01:39:46.348Z,1009.69
2022-10-21T01:40:46.340Z,1009.64
2022-10-21T01:41:46.326Z,1009.67
2022-10-21T01:42:46.318Z,1009.73
2022-10-21T01:43:46.305Z,1009.72
2022-10-21T01:44:46.291Z,1009.71
2022-10-21T01:45:46.309Z,1009.75
2022-10-21T01:46:46.269Z,1009.76
2022-10-21T01:47:46.260Z,1009.77
2022-10-21T01:48:46.248Z,1009.77
2022-10-21T01:49:46.238Z,1009.78
2022-10-21T01:50:46.230Z,1009.72
2022-10-21T01:51:46.218Z,1009.76
2022-10-21T01:52:46.202Z,1009.76
2022-10-21T01:53:46.192Z,1009.64
2022-10-21T01:54:46.181Z,1009.62
2022-10-21T01:55:46.166Z,1009.72
2022-10-21T01:56:46.161Z,1009.70
2022-10-21T01:57:46.146Z,1009.62
2022-10-21T01:58:46.135Z,1009.60
2022-10-21T01:59:46.124Z,1009.69
2022-10-21T02:00:46.158Z,1009.57
2022-10-21T02:01:46.124Z,1009.60
2022-10-21T02:02:46.090Z,1009.56
2022-10-21T02:03:46.076Z,1009.50
2022-10-21T02:04:46.069Z,1009.47
2022-10-21T02:05:46.053Z,1009.42
2022-10-21T02:06:46.044Z,1009.46
2022-10-21T02:07:46.033Z,1009.41
2022-10-21T02:08:46.102Z,1009.40
2022-10-21T02:09:46.013Z,1009.39
2022-10-21T02:10:45.997Z,1009.37
2022-10-21T02:11:45.995Z,1009.29
2022-10-21T02:12:45.980Z,1009.34
2022-10-21T02:13:45.964Z,1009.28
2022-10-21T02:14:45.960Z,1009.22
2022-10-21T02:15:45.941Z,1009.24
2022-10-21T02:16:45.933Z,1009.18
2022-10-21T02:17:45.944Z,1009.20
2022-10-21T02:18:45.911Z,1009.14
2022-10-21T02:19:45.900Z,1009.15
2022-10-21T02:20:45.890Z,1009.08
2022-10-21T02:21:45.873Z,1009.10
2022-10-21T02:22:45.863Z,1009.08
2022-10-21T02:23:45.850Z,1009.00
2022-10-21T02:24:45.843Z,1009.02
2022-10-21T02:25:45.829Z,1008.98
2022-10-21T02:26:45.816Z,1009.02
2022-10-21T02:27:45.810Z,1009.09
2022-10-21T02:28:45.796Z,1008.97
2022-10-21T02:29:45.786Z,1009.02
2022-10-21T02:30:45.773Z,1009.01
2022-10-21T02:31:45.767Z,1009.04
2022-10-21T02:32:45.758Z,1009.12
2022-10-21T02:33:45.764Z,1009.09
2022-10-21T02:34:45.728Z,1008.99
2022-10-21T02:35:45.720Z,1009.14
2022-10-21T02:36:45.706Z,1009.00
2022-10-21T02:37:45.696Z,1009.17
2022-10-21T02:38:45.694Z,1009.18
2022-10-21T02:39:45.671Z,1009.19
2022-10-21T02:40:45.667Z,1009.14
2022-10-21T02:41:45.648Z,1009.17
2022-10-21T02:42:45.637Z,1009.25
2022-10-21T02:43:45.626Z,1009.06
2022-10-21T02:44:45.618Z,1009.00
2022-10-21T02:45:45.607Z,1009.02
2022-10-21T02:46:45.593Z,1009.00
2022-10-21T02:47:45.579Z,1009.00
2022-10-21T02:48:45.569Z,1009.01
2022-10-21T02:49:45.586Z,1009.00
2022-10-21T02:50:45.553Z,1008.92
2022-10-21T02:51:45.548Z,1008.90
2022-10-21T02:52:45.523Z,1008.86
2022-10-21T02:53:45.514Z,1008.83
2022-10-21T02:54:45.509Z,1008.88
2022-10-21T02:55:45.491Z,1008.88
2022-10-21T02:56:45.484Z,1008.80
2022-10-21T02:57:45.469Z,1008.82
2022-10-21T02:58:45.459Z,1008.70
2022-10-21T02:59:45.446Z,1008.60
2022-10-21T03:00:45.517Z,1008.56
2022-10-21T03:01:45.425Z,1008.49
2022-10-21T03:02:45.419Z,1008.52
2022-10-21T03:03:45.402Z,1008.51
2022-10-21T03:04:45.393Z,1008.48
2022-10-21T03:05:45.403Z,1008.50
2022-10-21T03:06:45.368Z,1008.47
2022-10-21T03:07:45.355Z,1008.51
2022-10-21T03:08:45.406Z,1008.47
2022-10-21T03:09:45.333Z,1008.45
2022-10-21T03:10:48.034Z,1008.45
2022-10-21T03:11:45.315Z,1008.49
2022-10-21T03:12:45.303Z,1008.49
2022-10-21T03:13:45.294Z,1008.61
2022-10-21T03:14:45.278Z,1008.61
2022-10-21T03:15:45.269Z,1008.58
2022-10-21T03:16:45.258Z,1008.64
2022-10-21T03:17:45.244Z,1008.67
2022-10-21T03:18:45.233Z,1008.68
2022-10-21T03:19:45.222Z,1008.72
2022-10-21T03:20:45.209Z,1008.64
2022-10-21T03:21:45.223Z,1008.63
2022-10-21T03:22:45.187Z,1008.60
2022-10-21T03:23:45.177Z,1008.59
2022-10-21T03:24:45.164Z,1008.63
2022-10-21T03:25:45.154Z,1008.64
2022-10-21T03:26:45.143Z,1008.69
2022-10-21T03:27:45.133Z,1008.58
2022-10-21T03:28:45.119Z,1008.59
2022-10-21T03:29:45.112Z,1008.66
2022-10-21T03:30:45.103Z,1008.63
2022-10-21T03:31:45.086Z,1008.64
2022-10-21T03:32:45.074Z,1008.71
2022-10-21T03:33:45.063Z,1008.73
2022-10-21T03:34:45.055Z,1008.63
2022-10-21T03:35:45.045Z,1008.62
2022-10-21T03:36:45.047Z,1008.71
2022-10-21T03:37:45.099Z,1008.66
2022-10-21T03:38:45.024Z,1008.61
2022-10-21T03:39:45.015Z,1008.62
2022-10-21T03:40:44.987Z,1008.63
2022-10-21T03:41:44.975Z,1008.54
2022-10-21T03:42:44.971Z,1008.45
2022-10-21T03:43:44.955Z,1008.40
2022-10-21T03:44:44.941Z,1008.46
2022-10-21T03:45:44.933Z,1008.51
2022-10-21T03:46:44.918Z,1008.57
2022-10-21T03:47:44.921Z,1008.56
2022-10-21T03:48:44.895Z,1008.55
2022-10-21T03:49:44.894Z,1008.63
2022-10-21T03:50:44.875Z,1008.63
2022-10-21T03:51:44.861Z,1008.56
2022-10-21T03:52:44.856Z,1008.50
2022-10-21T03:53:44.861Z,1008.54
2022-10-21T03:54:44.832Z,1008.60
2022-10-21T03:55:44.816Z,1008.63
2022-10-21T03:56:44.805Z,1008.66
2022-10-21T03:57:44.796Z,1008.72
2022-10-21T03:58:44.784Z,1008.65
2022-10-21T03:59:44.772Z,1008.67
2022-10-21T04:00:44.766Z,1008.64
2022-10-21T04:01:44.862Z,1008.67
2022-10-21T04:02:44.745Z,1008.53
2022-10-21T04:03:44.726Z,1008.57
2022-10-21T04:04:44.722Z,1008.53
2022-10-21T04:05:44.704Z,1008.58
2022-10-21T04:06:44.696Z,1008.57
2022-10-21T04:07:48.143Z,1008.58
2022-10-21T04:08:44.736Z,1008.61
2022-10-21T04:09:44.682Z,1008.51
2022-10-21T04:10:44.727Z,1008.54
2022-10-21T04:11:44.640Z,1008.54
2022-10-21T04:12:44.626Z,1008.50
2022-10-21T04:13:44.615Z,1008.41
2022-10-21T04:14:44.603Z,1008.42
2022-10-21T04:15:44.591Z,1008.42
2022-10-21T04:16:46.133Z,1008.29
2022-10-21T04:17:44.572Z,1008.28
2022-10-21T04:18:44.563Z,1008.27
2022-10-21T04:19:44.547Z,1008.27
2022-10-21T04:20:44.542Z,1008.25
2022-10-21T04:21:44.526Z,1008.13
2022-10-21T04:22:44.521Z,1008.09
2022-10-21T04:23:44.500Z,1008.09
2022-10-21T04:24:44.491Z,1008.07
2022-10-21T04:25:44.507Z,1008.06
2022-10-21T04:26:44.468Z,1008.06
2022-10-21T04:27:44.465Z,1008.09
2022-10-21T04:28:44.447Z,1008.00
2022-10-21T04:29:44.434Z,1008.06
2022-10-21T04:30:44.427Z,1007.90
2022-10-21T04:31:44.458Z,1007.79
2022-10-21T04:32:44.404Z,1007.76
2022-10-21T04:33:44.392Z,1007.72
2022-10-21T04:34:44.385Z,1007.69
2022-10-21T04:35:44.376Z,1007.76
2022-10-21T04:36:44.357Z,1007.75
2022-10-21T04:37:44.352Z,1007.79
2022-10-21T04:38:44.332Z,1007.76
2022-10-21T04:39:44.323Z,1007.73
2022-10-21T04:40:44.314Z,1007.76
2022-10-21T04:41:44.342Z,1007.67
2022-10-21T04:42:44.297Z,1007.64
2022-10-21T04:43:44.278Z,1007.70
2022-10-21T04:44:44.266Z,1007.65
2022-10-21T04:45:44.255Z,1007.67
2022-10-21T04:46:44.245Z,1007.70
2022-10-21T04:47:44.238Z,1007.63
2022-10-21T04:48:44.225Z,1007.69
2022-10-21T04:49:44.219Z,1007.65
2022-10-21T04:50:44.198Z,1007.61
2022-10-21T04:51:44.193Z,1007.55
2022-10-21T04:52:44.186Z,1007.63
2022-10-21T04:53:44.165Z,1007.61
2022-10-21T04:54:44.163Z,1007.61
2022-10-21T04:55:44.142Z,1007.64
2022-10-21T04:56:44.131Z,1007.61
2022-10-21T04:57:44.141Z,1007.59
2022-10-21T04:58:44.108Z,1007.61
2022-10-21T04:59:44.099Z,1007.63
2022-10-21T05:00:44.130Z,1007.59
2022-10-21T05:01:44.075Z,1007.48
2022-10-21T05:02:44.069Z,1007.54
2022-10-21T05:03:44.054Z,1007.54
2022-10-21T05:04:44.044Z,1007.55
2022-10-21T05:05:44.031Z,1007.61
2022-10-21T05:06:44.017Z,1007.52
2022-10-21T05:07:44.010Z,1007.43
2022-10-21T05:08:44.032Z,1007.42
2022-10-21T05:09:43.982Z,1007.41
2022-10-21T05:10:43.973Z,1007.32
2022-10-21T05:11:43.961Z,1007.32
2022-10-21T05:12:43.950Z,1007.32
2022-10-21T05:13:43.960Z,1007.15
2022-10-21T05:14:43.926Z,1007.17
2022-10-21T05:15:43.914Z,1007.17
2022-10-21T05:16:43.904Z,1007.19
2022-10-21T05:17:43.903Z,1007.15
2022-10-21T05:18:43.881Z,1007.11
2022-10-21T05:19:43.879Z,1007.15
2022-10-21T05:20:43.859Z,1007.21
2022-10-21T05:21:43.855Z,1007.19
2022-10-21T05:22:45.834Z,1007.21
2022-10-21T05:23:43.828Z,1007.23
2022-10-21T05:24:43.819Z,1007.32
2022-10-21T05:25:43.801Z,1007.35
2022-10-21T05:26:43.799Z,1007.43
2022-10-21T05:27:43.779Z,1007.41
2022-10-21T05:28:45.774Z,1007.38
2022-10-21T05:29:43.791Z,1007.34
2022-10-21T05:30:43.749Z,1007.34
2022-10-21T05:31:43.741Z,1007.28
2022-10-21T05:32:43.726Z,1007.26
2022-10-21T05:33:43.715Z,1007.28
2022-10-21T05:34:43.701Z,1007.26
2022-10-21T05:35:43.692Z,1007.20
2022-10-21T05:36:43.684Z,1007.19
2022-10-21T05:37:43.667Z,1007.24
2022-10-21T05:38:45.656Z,1007.27
2022-10-21T05:39:43.655Z,1007.20
2022-10-21T05:40:45.632Z,1007.19
2022-10-21T05:41:47.005Z,1007.15
2022-10-21T05:42:43.610Z,1007.16
2022-10-21T05:43:43.606Z,1007.18
2022-10-21T05:44:43.587Z,1007.18
2022-10-21T05:45:43.602Z,1007.08
2022-10-21T05:46:43.568Z,1007.14
2022-10-21T05:47:43.554Z,1007.18
2022-10-21T05:48:43.627Z,1007.19
2022-10-21T05:49:43.530Z,1007.13
2022-10-21T05:50:43.524Z,1007.10
2022-10-21T05:51:45.522Z,1007.15
2022-10-21T05:52:43.499Z,1007.12
2022-10-21T05:53:45.491Z,1007.12
2022-10-21T05:54:45.574Z,1007.06
2022-10-21T05:55:45.465Z,1007.03
2022-10-21T05:56:43.454Z,1007.08
2022-10-21T05:57:43.523Z,1007.06
2022-10-21T05:58:45.436Z,1007.10
2022-10-21T05:59:43.420Z,1007.08
2022-10-21T06:00:45.535Z,1007.06
2022-10-21T06:01:43.408Z,1007.17
2022-10-21T06:02:43.387Z,1007.02
2022-10-21T06:03:43.379Z,1007.04
2022-10-21T06:04:43.399Z,1007.06
2022-10-21T06:05:43.361Z,1007.10
2022-10-21T06:06:43.359Z,1007.01
2022-10-21T06:07:43.332Z,1007.01
2022-10-21T06:08:43.391Z,1007.06
2022-10-21T06:09:45.310Z,1007.03
2022-10-21T06:10:43.303Z,1007.06
2022-10-21T06:11:45.286Z,1007.09
2022-10-21T06:12:43.281Z,1007.11
2022-10-21T06:13:43.262Z,1007.17
2022-10-21T06:14:43.256Z,1007.15
2022-10-21T06:15:47.419Z,1007.10
2022-10-21T06:16:43.254Z,1007.11
2022-10-21T06:17:43.217Z,1007.15
2022-10-21T06:18:43.206Z,1007.17
2022-10-21T06:19:45.953Z,1007.14
2022-10-21T06:20:43.183Z,1007.13
2022-10-21T06:21:43.175Z,1007.16
2022-10-21T06:22:43.163Z,1007.12
2022-10-21T06:23:43.148Z,1007.15
2022-10-21T06:24:43.143Z,1007.10
2022-10-21T06:25:43.127Z,1007.08
2022-10-21T06:26:43.117Z,1007.10
2022-10-21T06:27:43.104Z,1007.24
2022-10-21T06:28:43.092Z,1007.18
2022-10-21T06:29:43.086Z,1007.21
2022-10-21T06:30:43.080Z,1007.22
2022-10-21T06:31:45.059Z,1007.16
2022-10-21T06:32:43.071Z,1007.15
2022-10-21T06:33:43.036Z,1007.23
2022-10-21T06:34:43.029Z,1007.15
2022-10-21T06:35:45.013Z,1007.11
2022-10-21T06:36:43.006Z,1007.13
2022-10-21T06:37:42.993Z,1007.07
2022-10-21T06:38:43.029Z,1007.05
2022-10-21T06:39:42.972Z,1007.09
2022-10-21T06:40:42.964Z,1007.15
2022-10-21T06:41:42.947Z,1007.14
2022-10-21T06:42:42.935Z,1007.18
2022-10-21T06:43:43.011Z,1007.23
2022-10-21T06:44:42.914Z,1007.20
2022-10-21T06:45:42.903Z,1007.20
2022-10-21T06:46:42.891Z,1007.20
2022-10-21T06:47:44.878Z,1007.22
2022-10-21T06:48:42.893Z,1007.28
2022-10-21T06:49:42.860Z,1007.27
2022-10-21T06:50:42.857Z,1007.35
2022-10-21T06:51:42.836Z,1007.32
2022-10-21T06:52:42.823Z,1007.31
2022-10-21T06:53:42.817Z,1007.25
2022-10-21T06:54:42.801Z,1007.28
2022-10-21T06:55:42.791Z,1007.23
2022-10-21T06:56:42.782Z,1007.19
2022-10-21T06:57:42.767Z,1007.19
2022-10-21T06:58:42.757Z,1007.18
2022-10-21T06:59:42.746Z,1007.21
2022-10-21T07:00:42.737Z,1007.16
2022-10-21T07:01:59.265Z,1007.17
2022-10-21T07:02:42.715Z,1007.24
2022-10-21T07:03:42.701Z,1007.19
2022-10-21T07:04:42.716Z,1007.29
2022-10-21T07:05:42.678Z,1007.22
2022-10-21T07:06:42.668Z,1007.25
2022-10-21T07:07:42.657Z,1007.17
2022-10-21T07:08:54.060Z,1007.24
2022-10-21T07:09:42.691Z,1007.15
2022-10-21T07:10:42.625Z,1007.06
2022-10-21T07:11:42.610Z,1007.03
2022-10-21T07:12:42.598Z,1007.07
2022-10-21T07:13:42.607Z,1007.07
2022-10-21T07:14:42.580Z,1007.12
2022-10-21T07:15:42.582Z,1007.14
2022-10-21T07:16:42.554Z,1007.17
2022-10-21T07:17:42.542Z,1007.21
2022-10-21T07:18:42.723Z,1007.27
2022-10-21T07:19:42.528Z,1007.22
2022-10-21T07:20:42.533Z,1007.23
2022-10-21T07:21:42.500Z,1007.34
2022-10-21T07:22:42.485Z,1007.32
2022-10-21T07:23:42.481Z,1007.39
2022-10-21T07:24:42.470Z,1007.34
2022-10-21T07:25:42.453Z,1007.37
2022-10-21T07:26:42.443Z,1007.36
2022-10-21T07:27:44.778Z,1007.34
2022-10-21T07:28:42.423Z,1007.30
2022-10-21T07:29:42.414Z,1007.27
2022-10-21T07:30:42.397Z,1007.26
2022-10-21T07:31:42.394Z,1007.32
2022-10-21T07:32:42.374Z,1007.28
2022-10-21T07:33:42.375Z,1007.36
2022-10-21T07:34:42.361Z,1007.37
2022-10-21T07:35:42.346Z,1007.30
2022-10-21T07:36:42.355Z,1007.40
2022-10-21T07:37:42.327Z,1007.41
2022-10-21T07:38:42.307Z,1007.50
2022-10-21T07:39:42.299Z,1007.42
2022-10-21T07:40:42.284Z,1007.40
2022-10-21T07:41:42.276Z,1007.29
2022-10-21T07:42:42.268Z,1007.23
2022-10-21T07:43:42.248Z,1007.23
2022-10-21T07:44:42.244Z,1007.28
2022-10-21T07:45:42.230Z,1007.17
2022-10-21T07:46:42.223Z,1007.33
2022-10-21T07:47:42.209Z,1007.33
2022-10-21T07:48:42.192Z,1007.21
2022-10-21T07:49:42.182Z,1007.27
2022-10-21T07:50:42.171Z,1007.21
2022-10-21T07:51:42.162Z,1007.24
2022-10-21T07:52:48.358Z,1007.24
2022-10-21T07:53:42.140Z,1007.21
2022-10-21T07:54:42.125Z,1007.15
2022-10-21T07:55:42.115Z,1007.24
2022-10-21T07:56:42.102Z,1007.22
2022-10-21T07:57:42.097Z,1007.31
2022-10-21T07:58:42.088Z,1007.28
2022-10-21T07:59:42.067Z,1007.38
2022-10-21T08:00:42.274Z,1007.37
2022-10-21T08:01:42.143Z,1007.36
2022-10-21T08:02:42.033Z,1007.24
2022-10-21T08:03:42.022Z,1007.21
2022-10-21T08:04:42.013Z,1007.15
2022-10-21T08:05:41.999Z,1007.19
2022-10-21T08:06:41.990Z,1007.21
2022-10-21T08:07:41.982Z,1007.23
2022-10-21T08:08:42.047Z,1007.17
2022-10-21T08:09:41.964Z,1007.19
2022-10-21T08:10:41.997Z,1007.22
2022-10-21T08:11:41.933Z,1007.25
2022-10-21T08:12:41.923Z,1007.27
2022-10-21T08:13:41.911Z,1007.32
2022-10-21T08:14:41.897Z,1007.34
2022-10-21T08:15:41.889Z,1007.35
2022-10-21T08:16:41.879Z,1007.40
2022-10-21T08:17:41.862Z,1007.34
2022-10-21T08:18:41.867Z,1007.25
2022-10-21T08:19:41.839Z,1007.31
2022-10-21T08:20:41.833Z,1007.21
2022-10-21T08:21:41.817Z,1007.21
2022-10-21T08:22:41.883Z,1007.21
2022-10-21T08:23:41.795Z,1007.24
2022-10-21T08:24:42.466Z,1007.26
2022-10-21T08:25:41.773Z,1007.24
2022-10-21T08:26:41.761Z,1007.19
2022-10-21T08:27:41.748Z,1007.21
2022-10-21T08:28:41.742Z,1007.19
2022-10-21T08:29:41.725Z,1007.11
2022-10-21T08:30:41.723Z,1007.17
2022-10-21T08:31:41.709Z,1007.12
2022-10-21T08:32:41.814Z,1007.22
2022-10-21T08:33:41.680Z,1007.14
2022-10-21T08:34:41.673Z,1007.14
2022-10-21T08:35:41.662Z,1007.07
2022-10-21T08:36:41.649Z,1007.03
2022-10-21T08:37:41.634Z,1007.13
2022-10-21T08:38:41.631Z,1007.06
2022-10-21T08:39:41.610Z,1007.07
2022-10-21T08:40:41.627Z,1007.04
2022-10-21T08:41:41.588Z,1006.95
2022-10-21T08:42:41.640Z,1006.98
2022-10-21T08:43:41.564Z,1006.98
2022-10-21T08:44:41.555Z,1006.93
2022-10-21T08:45:41.542Z,1006.99
2022-10-21T08:46:41.531Z,1006.90
2022-10-21T08:47:41.720Z,1006.97
2022-10-21T08:48:41.509Z,1006.99
2022-10-21T08:49:41.497Z,1006.90
2022-10-21T08:50:41.484Z,1006.87
2022-10-21T08:51:41.483Z,1006.89
2022-10-21T08:52:41.462Z,1006.88
2022-10-21T08:53:41.456Z,1006.95
2022-10-21T08:54:41.440Z,1007.03
2022-10-21T08:55:41.430Z,1006.95
2022-10-21T08:56:41.452Z,1006.96
2022-10-21T08:57:41.667Z,1006.91
2022-10-21T08:58:41.398Z,1006.85
2022-10-21T08:59:41.383Z,1006.86
2022-10-21T09:00:41.372Z,1006.88
2022-10-21T09:01:41.363Z,1006.90
2022-10-21T09:02:41.441Z,1006.89
2022-10-21T09:03:41.340Z,1006.86
2022-10-21T09:04:41.334Z,1006.87
2022-10-21T09:05:41.318Z,1006.89
2022-10-21T09:06:41.310Z,1006.85
2022-10-21T09:07:41.691Z,1006.86
2022-10-21T09:08:41.412Z,1006.77
2022-10-21T09:09:41.277Z,1006.71
2022-10-21T09:10:41.263Z,1006.70
2022-10-21T09:11:41.256Z,1006.67
2022-10-21T09:12:41.265Z,1006.62
2022-10-21T09:13:41.231Z,1006.66
2022-10-21T09:14:41.224Z,1006.62
2022-10-21T09:15:41.209Z,1006.63
2022-10-21T09:16:41.206Z,1006.60
2022-10-21T09:17:41.511Z,1006.58
2022-10-21T09:18:41.175Z,1006.60
2022-10-21T09:19:41.167Z,1006.63
2022-10-21T09:20:41.155Z,1006.55
2022-10-21T09:21:41.141Z,1006.57
2022-10-21T09:22:41.133Z,1006.58
2022-10-21T09:23:41.122Z,1006.67
2022-10-21T09:24:41.111Z,1006.59
2022-10-21T09:25:41.095Z,1006.51
2022-10-21T09:26:41.094Z,1006.50
2022-10-21T09:27:54.935Z,1006.53
2022-10-21T09:28:41.085Z,1006.56
2022-10-21T09:29:41.054Z,1006.54
2022-10-21T09:30:41.043Z,1006.63
2022-10-21T09:31:41.036Z,1006.62
2022-10-21T09:32:41.019Z,1006.55
2022-10-21T09:33:41.006Z,1006.61
2022-10-21T09:34:40.994Z,1006.61
2022-10-21T09:35:40.982Z,1006.63
2022-10-21T09:36:40.977Z,1006.63
2022-10-21T09:37:41.664Z,1006.58
2022-10-21T09:38:40.950Z,1006.66
2022-10-21T09:39:40.945Z,1006.68
2022-10-21T09:40:40.927Z,1006.59
2022-10-21T09:41:40.920Z,1006.56
2022-10-21T09:42:47.392Z,1006.52
2022-10-21T09:43:40.895Z,1006.58
2022-10-21T09:44:40.917Z,1006.53
2022-10-21T09:45:40.871Z,1006.54
2022-10-21T09:46:40.861Z,1006.50
2022-10-21T09:47:40.846Z,1006.52
2022-10-21T09:48:53.966Z,1006.57
2022-10-21T09:50:05.835Z,1006.57
2022-10-21T09:50:40.845Z,1006.55
2022-10-21T09:51:40.802Z,1006.59
2022-10-21T09:52:41.192Z,1006.58
2022-10-21T09:53:43.577Z,1006.56
2022-10-21T09:54:40.771Z,1006.56
2022-10-21T09:55:40.757Z,1006.63
2022-10-21T09:56:40.748Z,1006.64
2022-10-21T09:57:40.758Z,1006.63
2022-10-21T09:58:40.724Z,1006.56
2022-10-21T09:59:40.831Z,1006.59
2022-10-21T10:00:40.725Z,1006.62
2022-10-21T10:01:40.711Z,1006.59
2022-10-21T10:02:40.938Z,1006.56
2022-10-21T10:03:40.679Z,1006.56
2022-10-21T10:04:40.655Z,1006.55
2022-10-21T10:05:40.644Z,1006.59
2022-10-21T10:06:40.643Z,1006.55
2022-10-21T10:07:40.622Z,1006.55
2022-10-21T10:08:40.703Z,1006.61
2022-10-21T10:09:40.609Z,1006.40
2022-10-21T10:10:40.591Z,1006.53
2022-10-21T10:11:40.584Z,1006.52
2022-10-21T10:12:40.950Z,1006.46
2022-10-21T10:13:40.561Z,1006.52
2022-10-21T10:14:40.543Z,1006.60
2022-10-21T10:15:40.538Z,1006.49
2022-10-21T10:16:40.552Z,1006.51
2022-10-21T10:17:40.508Z,1006.41
2022-10-21T10:18:40.496Z,1006.35
2022-10-21T10:19:40.486Z,1006.36
2022-10-21T10:20:40.532Z,1006.41
2022-10-21T10:21:40.462Z,1006.41
2022-10-21T10:22:40.953Z,1006.41
2022-10-21T10:23:40.439Z,1006.38
2022-10-21T10:24:40.430Z,1006.32
2022-10-21T10:25:40.422Z,1006.31
2022-10-21T10:26:40.406Z,1006.33
2022-10-21T10:27:40.398Z,1006.24
2022-10-21T10:29:40.377Z,1006.29
2022-10-21T10:30:40.359Z,1006.19
2022-10-21T10:31:40.351Z,1006.23
2022-10-21T10:32:40.852Z,1006.23
2022-10-21T10:33:40.332Z,1006.28
2022-10-21T10:34:40.316Z,1006.29
2022-10-21T10:35:40.303Z,1006.17
2022-10-21T10:36:40.291Z,1006.27
2022-10-21T10:37:40.338Z,1006.21
2022-10-21T10:38:40.271Z,1006.23
2022-10-21T10:39:40.260Z,1006.25
2022-10-21T10:40:40.247Z,1006.18
2022-10-21T10:41:40.234Z,1006.15
2022-10-21T10:42:40.484Z,1006.13
2022-10-21T10:43:40.213Z,1006.06
2022-10-21T10:44:40.204Z,1006.03
2022-10-21T10:45:40.190Z,1006.09
2022-10-21T10:46:40.245Z,1006.15
2022-10-21T10:47:40.463Z,1006.08
2022-10-21T10:48:40.383Z,1006.03
2022-10-21T10:49:40.172Z,1005.97
2022-10-21T10:50:40.133Z,1006.05
2022-10-21T10:51:40.122Z,1006.00
2022-10-21T10:52:40.119Z,1006.01
2022-10-21T10:53:40.100Z,1006.01
2022-10-21T10:54:40.095Z,1005.94
2022-10-21T10:55:40.142Z,1005.81
2022-10-21T10:56:40.072Z,1005.85
2022-10-21T10:57:46.113Z,1005.82
2022-10-21T10:58:40.042Z,1005.84
2022-10-21T10:59:40.034Z,1005.87
2022-10-21T11:00:40.147Z,1005.86
2022-10-21T11:01:40.054Z,1005.88
2022-10-21T11:02:40.017Z,1005.83
2022-10-21T11:03:41.393Z,1005.83
2022-10-21T11:04:40.096Z,1005.81
2022-10-21T11:05:39.962Z,1005.87
2022-10-21T11:06:39.958Z,1005.86
2022-10-21T11:07:40.260Z,1005.78
2022-10-21T11:08:39.976Z,1005.81
2022-10-21T11:09:39.925Z,1005.88
2022-10-21T11:10:39.905Z,1005.85
2022-10-21T11:11:39.900Z,1005.86
2022-10-21T11:12:39.884Z,1005.81
2022-10-21T11:13:42.117Z,1005.79
2022-10-21T11:14:39.866Z,1005.81
2022-10-21T11:15:39.854Z,1005.78
2022-10-21T11:16:50.405Z,1005.88
2022-10-21T11:17:40.214Z,1005.77
2022-10-21T11:18:39.822Z,1005.80
2022-10-21T11:19:39.807Z,1005.78
2022-10-21T11:20:39.913Z,1005.85
2022-10-21T11:21:39.784Z,1005.82
2022-10-21T11:22:39.772Z,1005.79
2022-10-21T11:23:39.763Z,1005.76
2022-10-21T11:24:39.758Z,1005.76
2022-10-21T11:25:39.739Z,1005.79
2022-10-21T11:26:39.733Z,1005.76
2022-10-21T11:27:40.091Z,1005.67
2022-10-21T11:28:39.705Z,1005.70
2022-10-21T11:29:39.702Z,1005.67
2022-10-21T11:30:39.685Z,1005.72
2022-10-21T11:31:48.818Z,1005.71
2022-10-21T11:32:39.666Z,1005.69
2022-10-21T11:33:39.649Z,1005.65
2022-10-21T11:34:39.642Z,1005.64
2022-10-21T11:35:39.627Z,1005.62
2022-10-21T11:36:39.732Z,1005.72
2022-10-21T11:37:39.900Z,1005.65
2022-10-21T11:38:39.598Z,1005.69
2022-10-21T11:39:39.582Z,1005.70
2022-10-21T11:40:39.576Z,1005.73
2022-10-21T11:41:39.559Z,1005.73
2022-10-21T11:42:39.939Z,1005.69
2022-10-21T11:43:39.536Z,1005.69
2022-10-21T11:44:39.526Z,1005.72
2022-10-21T11:45:39.520Z,1005.61
2022-10-21T11:46:39.501Z,1005.66
2022-10-21T11:47:39.497Z,1005.73
2022-10-21T11:48:39.478Z,1005.72
2022-10-21T11:49:39.466Z,1005.61
2022-10-21T11:50:39.460Z,1005.63
2022-10-21T11:51:39.445Z,1005.63
2022-10-21T11:52:39.733Z,1005.72
2022-10-21T11:53:39.424Z,1005.60
2022-10-21T11:54:49.072Z,1005.58
2022-10-21T11:55:39.401Z,1005.54
2022-10-21T11:56:39.388Z,1005.59
2022-10-21T11:57:39.389Z,1005.55
2022-10-21T11:58:39.375Z,1005.61
2022-10-21T11:59:39.354Z,1005.65
2022-10-21T12:00:39.345Z,1005.63
2022-10-21T12:01:39.333Z,1005.65
2022-10-21T12:02:39.706Z,1005.66
2022-10-21T12:03:39.309Z,1005.65
2022-10-21T12:04:39.306Z,1005.66
2022-10-21T12:05:39.285Z,1005.64
2022-10-21T12:06:39.276Z,1005.73
2022-10-21T12:07:39.274Z,1005.75